sensor_id;sensor_type;location;lat;lon;timestamp;temperature;humidity
49503;DHT22;35409;48.776;9.204;2023-05-16T03:15:56;11.10;99.90
49503;DHT22;35409;48.776;9.204;2023-05-16T03:18:21;11.10;99.90
49503;DHT22;35409;48.776;9.204;2023-05-16T03:20:47;11.00;99.90
49503;DHT22;35409;48.776;9.204;2023-05-16T03:23:12;11.00;99.90
49503;DHT22;35409;48.776;9.204;2023-05-16T03:25:38;10.90;99.90
49503;DHT22;35409;48.776;9.204;2023-05-16T03:28:07;10.90;99.90
49503;DHT22;35409;48.776;9.204;2023-05-16T03:30:33;10.90;99.90
49503;DHT22;35409;48.776;9.204;2023-05-16T03:32:59;10.80;99.90
49503;DHT22;35409;48.776;9.204;2023-05-16T03:35:25;10.80;99.90
49503;DHT22;35409;48.776;9.204;2023-05-16T03:37:51;10.80;99.90
49503;DHT22;35409;48.776;9.204;2023-05-16T03:40:17;10.80;99.90
49503;DHT22;35409;48.776;9.204;2023-05-16T03:42:42;10.70;99.90
49503;DHT22;35409;48.776;9.204;2023-05-16T03:45:10;10.70;99.90
49503;DHT22;35409;48.776;9.204;2023-05-16T03:47:35;10.70;99.90
49503;DHT22;35409;48.776;9.204;2023-05-16T03:50:01;10.70;99.90
49503;DHT22;35409;48.776;9.204;2023-05-16T03:52:27;10.70;99.90
49503;DHT22;35409;48.776;9.204;2023-05-16T03:54:53;10.70;99.90
49503;DHT22;35409;48.776;9.204;2023-05-16T03:57:18;10.70;99.90
49503;DHT22;35409;48.776;9.204;2023-05-16T03:59:44;10.70;99.90
49503;DHT22;35409;48.776;9.204;2023-05-16T04:02:10;10.70;99.90
49503;DHT22;35409;48.776;9.204;2023-05-16T04:04:35;10.70;99.90
49503;DHT22;35409;48.776;9.204;2023-05-16T04:07:01;10.70;99.90
49503;DHT22;35409;48.776;9.204;2023-05-16T04:09:27;10.80;99.90
49503;DHT22;35409;48.776;9.204;2023-05-16T04:11:53;10.80;99.90
49503;DHT22;35409;48.776;9.204;2023-05-16T04:14:21;10.80;99.90
49503;DHT22;35409;48.776;9.204;2023-05-16T04:16:47;10.90;99.90
49503;DHT22;35409;48.776;9.204;2023-05-16T04:19:13;10.90;99.90
49503;DHT22;35409;48.776;9.204;2023-05-16T04:21:38;10.90;99.90
49503;DHT22;35409;48.776;9.204;2023-05-16T04:24:04;10.90;99.90
49503;DHT22;35409;48.776;9.204;2023-05-16T04:26:30;11.00;99.90
49503;DHT22;35409;48.776;9.204;2023-05-16T04:28:56;11.00;99.90
49503;DHT22;35409;48.776;9.204;2023-05-16T04:31:24;11.00;99.90
49503;DHT22;35409;48.776;9.204;2023-05-16T04:33:50;11.00;99.90
49503;DHT22;35409;48.776;9.204;2023-05-16T04:36:15;11.10;99.90
49503;DHT22;35409;48.776;9.204;2023-05-16T04:38:41;11.10;99.90
49503;DHT22;35409;48.776;9.204;2023-05-16T04:41:07;11.20;99.90
49503;DHT22;35409;48.776;9.204;2023-05-16T04:43:32;11.20;99.90
49503;DHT22;35409;48.776;9.204;2023-05-16T04:45:58;11.20;99.90
49503;DHT22;35409;48.776;9.204;2023-05-16T04:48:24;11.30;99.90
49503;DHT22;35409;48.776;9.204;2023-05-16T04:50:50;11.30;99.90
49503;DHT22;35409;48.776;9.204;2023-05-16T04:53:16;11.40;99.90
49503;DHT22;35409;48.776;9.204;2023-05-16T04:55:42;11.50;99.90
49503;DHT22;35409;48.776;9.204;2023-05-16T04:58:07;11.50;99.90
49503;DHT22;35409;48.776;9.204;2023-05-16T05:00:33;11.60;99.90
49503;DHT22;35409;48.776;9.204;2023-05-16T05:02:59;11.60;99.90
49503;DHT22;35409;48.776;9.204;2023-05-16T05:05:24;11.70;99.90
49503;DHT22;35409;48.776;9.204;2023-05-16T05:07:50;11.70;99.90
49503;DHT22;35409;48.776;9.204;2023-05-16T05:10:16;11.80;99.90
49503;DHT22;35409;48.776;9.204;2023-05-16T05:12:42;11.80;99.90
49503;DHT22;35409;48.776;9.204;2023-05-16T05:15:08;11.90;99.90
49503;DHT22;35409;48.776;9.204;2023-05-16T05:17:34;12.00;99.90
49503;DHT22;35409;48.776;9.204;2023-05-16T05:19:59;11.90;99.90
49503;DHT22;35409;48.776;9.204;2023-05-16T05:22:25;11.90;99.90
49503;DHT22;35409;48.776;9.204;2023-05-16T05:24:50;12.00;99.90
49503;DHT22;35409;48.776;9.204;2023-05-16T05:27:16;12.00;99.90
49503;DHT22;35409;48.776;9.204;2023-05-16T05:29:42;12.10;99.90
49503;DHT22;35409;48.776;9.204;2023-05-16T05:32:07;12.10;99.90
49503;DHT22;35409;48.776;9.204;2023-05-16T05:34:33;12.10;99.90
49503;DHT22;35409;48.776;9.204;2023-05-16T05:36:58;12.00;99.90
49503;DHT22;35409;48.776;9.204;2023-05-16T05:39:24;12.10;99.90
49503;DHT22;35409;48.776;9.204;2023-05-16T05:41:50;12.10;99.90
49503;DHT22;35409;48.776;9.204;2023-05-16T05:44:16;12.10;99.90
49503;DHT22;35409;48.776;9.204;2023-05-16T05:46:41;12.10;99.90
49503;DHT22;35409;48.776;9.204;2023-05-16T05:49:07;12.10;99.90
49503;DHT22;35409;48.776;9.204;2023-05-16T05:51:33;12.10;99.90
49503;DHT22;35409;48.776;9.204;2023-05-16T05:54:00;12.10;99.90
49503;DHT22;35409;48.776;9.204;2023-05-16T05:56:25;12.10;99.90
49503;DHT22;35409;48.776;9.204;2023-05-16T05:58:51;12.10;99.90
49503;DHT22;35409;48.776;9.204;2023-05-16T06:01:17;12.10;99.90
49503;DHT22;35409;48.776;9.204;2023-05-16T06:03:42;12.10;99.90
49503;DHT22;35409;48.776;9.204;2023-05-16T06:06:08;12.10;99.90
49503;DHT22;35409;48.776;9.204;2023-05-16T06:08:34;12.00;99.90
49503;DHT22;35409;48.776;9.204;2023-05-16T06:11:00;12.00;99.90
49503;DHT22;35409;48.776;9.204;2023-05-16T06:13:26;12.00;99.90
49503;DHT22;35409;48.776;9.204;2023-05-16T06:15:52;12.00;99.90
49503;DHT22;35409;48.776;9.204;2023-05-16T06:18:18;12.10;99.90
49503;DHT22;35409;48.776;9.204;2023-05-16T06:20:43;12.20;99.90
49503;DHT22;35409;48.776;9.204;2023-05-16T06:23:09;12.20;99.90
49503;DHT22;35409;48.776;9.204;2023-05-16T06:25:35;12.20;99.90
49503;DHT22;35409;48.776;9.204;2023-05-16T06:28:00;12.20;99.90
49503;DHT22;35409;48.776;9.204;2023-05-16T06:30:26;12.20;99.90
49503;DHT22;35409;48.776;9.204;2023-05-16T06:32:51;12.30;99.90
49503;DHT22;35409;48.776;9.204;2023-05-16T06:35:17;12.30;99.90
49503;DHT22;35409;48.776;9.204;2023-05-16T06:37:42;12.30;99.90
49503;DHT22;35409;48.776;9.204;2023-05-16T06:40:08;12.40;99.90
49503;DHT22;35409;48.776;9.204;2023-05-16T06:42:34;12.40;99.90
49503;DHT22;35409;48.776;9.204;2023-05-16T06:45:00;12.40;99.90
49503;DHT22;35409;48.776;9.204;2023-05-16T06:47:25;12.40;99.90
49503;DHT22;35409;48.776;9.204;2023-05-16T06:49:51;12.40;99.90
49503;DHT22;35409;48.776;9.204;2023-05-16T06:52:17;12.40;99.90
49503;DHT22;35409;48.776;9.204;2023-05-16T06:54:42;12.40;99.90
49503;DHT22;35409;48.776;9.204;2023-05-16T06:57:08;12.40;99.90
49503;DHT22;35409;48.776;9.204;2023-05-16T06:59:34;12.30;99.90
49503;DHT22;35409;48.776;9.204;2023-05-16T07:02:00;12.40;99.90
49503;DHT22;35409;48.776;9.204;2023-05-16T07:04:26;12.30;99.90
49503;DHT22;35409;48.776;9.204;2023-05-16T07:06:52;12.30;99.90
49503;DHT22;35409;48.776;9.204;2023-05-16T07:09:18;12.30;99.90
49503;DHT22;35409;48.776;9.204;2023-05-16T07:11:44;12.40;99.90
49503;DHT22;35409;48.776;9.204;2023-05-16T07:14:09;12.40;99.90
49503;DHT22;35409;48.776;9.204;2023-05-16T07:16:35;12.40;99.90
49503;DHT22;35409;48.776;9.204;2023-05-16T07:19:01;12.40;99.90
49503;DHT22;35409;48.776;9.204;2023-05-16T07:21:26;12.40;99.90
49503;DHT22;35409;48.776;9.204;2023-05-16T07:23:52;12.40;99.90
49503;DHT22;35409;48.776;9.204;2023-05-16T07:26:18;12.40;99.90
49503;DHT22;35409;48.776;9.204;2023-05-16T07:28:46;12.40;99.90
49503;DHT22;35409;48.776;9.204;2023-05-16T07:31:12;12.40;99.90
49503;DHT22;35409;48.776;9.204;2023-05-16T07:33:37;12.30;99.90
49503;DHT22;35409;48.776;9.204;2023-05-16T07:36:03;12.30;99.90
49503;DHT22;35409;48.776;9.204;2023-05-16T07:38:29;12.30;99.90
49503;DHT22;35409;48.776;9.204;2023-05-16T07:40:54;12.40;99.90
49503;DHT22;35409;48.776;9.204;2023-05-16T07:43:20;12.30;99.90
49503;DHT22;35409;48.776;9.204;2023-05-16T07:45:46;12.50;99.90
49503;DHT22;35409;48.776;9.204;2023-05-16T07:48:11;12.60;99.90
49503;DHT22;35409;48.776;9.204;2023-05-16T07:50:37;12.60;99.90
49503;DHT22;35409;48.776;9.204;2023-05-16T07:53:03;12.60;99.90
49503;DHT22;35409;48.776;9.204;2023-05-16T07:55:28;12.70;99.90
49503;DHT22;35409;48.776;9.204;2023-05-16T07:57:54;12.70;99.90
49503;DHT22;35409;48.776;9.204;2023-05-16T08:00:20;12.80;99.90
49503;DHT22;35409;48.776;9.204;2023-05-16T08:02:46;12.80;99.90
49503;DHT22;35409;48.776;9.204;2023-05-16T08:05:11;12.90;99.90
49503;DHT22;35409;48.776;9.204;2023-05-16T08:07:37;13.00;99.90
49503;DHT22;35409;48.776;9.204;2023-05-16T08:10:03;13.00;99.90
49503;DHT22;35409;48.776;9.204;2023-05-16T08:12:29;12.90;99.90
49503;DHT22;35409;48.776;9.204;2023-05-16T08:14:55;12.90;99.90
49503;DHT22;35409;48.776;9.204;2023-05-16T08:17:21;12.90;99.90
49503;DHT22;35409;48.776;9.204;2023-05-16T08:19:47;12.80;99.90
49503;DHT22;35409;48.776;9.204;2023-05-16T08:22:12;12.70;99.90
49503;DHT22;35409;48.776;9.204;2023-05-16T08:24:38;12.70;99.90
49503;DHT22;35409;48.776;9.204;2023-05-16T08:27:03;12.60;99.90
49503;DHT22;35409;48.776;9.204;2023-05-16T08:29:29;12.60;99.90
49503;DHT22;35409;48.776;9.204;2023-05-16T08:31:56;12.60;99.90
49503;DHT22;35409;48.776;9.204;2023-05-16T08:34:21;12.60;99.90
49503;DHT22;35409;48.776;9.204;2023-05-16T08:36:47;12.60;99.90
49503;DHT22;35409;48.776;9.204;2023-05-16T08:39:13;12.50;99.90
49503;DHT22;35409;48.776;9.204;2023-05-16T08:41:39;12.50;99.90
49503;DHT22;35409;48.776;9.204;2023-05-16T08:44:05;12.50;99.90
49503;DHT22;35409;48.776;9.204;2023-05-16T08:46:32;12.60;99.90
49503;DHT22;35409;48.776;9.204;2023-05-16T08:49:00;12.50;99.90
49503;DHT22;35409;48.776;9.204;2023-05-16T08:51:31;12.50;99.90
49503;DHT22;35409;48.776;9.204;2023-05-16T08:54:03;12.60;99.90
49503;DHT22;35409;48.776;9.204;2023-05-16T08:56:32;12.60;99.90
49503;DHT22;35409;48.776;9.204;2023-05-16T08:58:58;12.60;99.90
49503;DHT22;35409;48.776;9.204;2023-05-16T09:01:24;12.60;99.90
49503;DHT22;35409;48.776;9.204;2023-05-16T09:03:51;12.60;99.90
49503;DHT22;35409;48.776;9.204;2023-05-16T09:06:17;12.50;99.90
49503;DHT22;35409;48.776;9.204;2023-05-16T09:08:43;12.50;99.90
49503;DHT22;35409;48.776;9.204;2023-05-16T09:11:09;12.40;99.90
49503;DHT22;35409;48.776;9.204;2023-05-16T09:13:36;12.30;99.90
49503;DHT22;35409;48.776;9.204;2023-05-16T09:16:15;12.30;99.90
49503;DHT22;35409;48.776;9.204;2023-05-16T09:18:46;12.30;99.90
49503;DHT22;35409;48.776;9.204;2023-05-16T09:21:17;12.30;99.90
49503;DHT22;35409;48.776;9.204;2023-05-16T09:23:43;12.30;99.90
49503;DHT22;35409;48.776;9.204;2023-05-16T09:26:09;12.40;99.90
49503;DHT22;35409;48.776;9.204;2023-05-16T09:28:37;12.40;99.90
49503;DHT22;35409;48.776;9.204;2023-05-16T09:31:03;12.40;99.90
49503;DHT22;35409;48.776;9.204;2023-05-16T09:33:29;12.30;99.90
49503;DHT22;35409;48.776;9.204;2023-05-16T09:35:59;12.20;99.90
49503;DHT22;35409;48.776;9.204;2023-05-16T09:38:25;12.20;99.90
49503;DHT22;35409;48.776;9.204;2023-05-16T09:40:55;12.20;99.90
49503;DHT22;35409;48.776;9.204;2023-05-16T09:43:24;12.10;99.90
49503;DHT22;35409;48.776;9.204;2023-05-16T09:45:49;12.20;99.90
49503;DHT22;35409;48.776;9.204;2023-05-16T09:48:15;12.30;99.90
49503;DHT22;35409;48.776;9.204;2023-05-16T09:50:47;12.60;99.90
49503;DHT22;35409;48.776;9.204;2023-05-16T09:53:14;13.10;99.90
49503;DHT22;35409;48.776;9.204;2023-05-16T09:55:40;13.80;99.90
49503;DHT22;35409;48.776;9.204;2023-05-16T09:58:05;14.30;99.90
49503;DHT22;35409;48.776;9.204;2023-05-16T10:00:32;14.70;99.90
49503;DHT22;35409;48.776;9.204;2023-05-16T10:02:59;14.80;99.90
49503;DHT22;35409;48.776;9.204;2023-05-16T10:05:26;14.50;99.90
49503;DHT22;35409;48.776;9.204;2023-05-16T10:07:56;14.10;99.90
49503;DHT22;35409;48.776;9.204;2023-05-16T10:10:23;14.00;99.90
49503;DHT22;35409;48.776;9.204;2023-05-16T10:12:50;13.70;99.90
49503;DHT22;35409;48.776;9.204;2023-05-16T10:15:16;13.50;99.90
49503;DHT22;35409;48.776;9.204;2023-05-16T10:17:44;13.40;99.90
49503;DHT22;35409;48.776;9.204;2023-05-16T10:20:11;13.40;99.90
49503;DHT22;35409;48.776;9.204;2023-05-16T10:22:43;13.60;99.90
49503;DHT22;35409;48.776;9.204;2023-05-16T10:25:35;13.70;99.90
49503;DHT22;35409;48.776;9.204;2023-05-16T10:28:02;13.70;99.90
49503;DHT22;35409;48.776;9.204;2023-05-16T10:30:28;13.90;99.90
49503;DHT22;35409;48.776;9.204;2023-05-16T10:32:55;14.10;99.90
49503;DHT22;35409;48.776;9.204;2023-05-16T10:35:22;14.30;99.90
49503;DHT22;35409;48.776;9.204;2023-05-16T10:37:49;14.30;99.90
49503;DHT22;35409;48.776;9.204;2023-05-16T10:40:16;14.40;99.90
49503;DHT22;35409;48.776;9.204;2023-05-16T10:42:58;14.50;99.90
49503;DHT22;35409;48.776;9.204;2023-05-16T10:45:24;14.60;99.90
49503;DHT22;35409;48.776;9.204;2023-05-16T10:47:58;14.50;99.90
49503;DHT22;35409;48.776;9.204;2023-05-16T10:56:08;14.10;99.90
49503;DHT22;35409;48.776;9.204;2023-05-16T11:14:42;13.20;99.90
49503;DHT22;35409;48.776;9.204;2023-05-16T11:17:14;12.90;99.90
49503;DHT22;35409;48.776;9.204;2023-05-16T11:19:46;12.80;99.90
49503;DHT22;35409;48.776;9.204;2023-05-16T11:25:06;12.50;99.90
49503;DHT22;35409;48.776;9.204;2023-05-16T11:27:42;12.40;99.90
49503;DHT22;35409;48.776;9.204;2023-05-16T11:30:16;12.20;99.90
49503;DHT22;35409;48.776;9.204;2023-05-16T11:32:45;12.00;99.90
49503;DHT22;35409;48.776;9.204;2023-05-16T11:35:12;11.90;99.90
49503;DHT22;35409;48.776;9.204;2023-05-16T11:37:38;11.80;99.90
49503;DHT22;35409;48.776;9.204;2023-05-16T11:40:05;11.70;99.90
49503;DHT22;35409;48.776;9.204;2023-05-16T11:42:47;11.60;99.90
49503;DHT22;35409;48.776;9.204;2023-05-16T11:45:20;11.60;99.90
49503;DHT22;35409;48.776;9.204;2023-05-16T11:47:50;11.40;99.90
49503;DHT22;35409;48.776;9.204;2023-05-16T11:50:20;11.40;99.90
49503;DHT22;35409;48.776;9.204;2023-05-16T11:52:47;11.40;99.90
49503;DHT22;35409;48.776;9.204;2023-05-16T11:55:15;11.40;99.90
49503;DHT22;35409;48.776;9.204;2023-05-16T11:57:43;11.40;99.90
49503;DHT22;35409;48.776;9.204;2023-05-16T12:00:21;11.40;99.90
49503;DHT22;35409;48.776;9.204;2023-05-16T12:02:51;11.20;99.90
49503;DHT22;35409;48.776;9.204;2023-05-16T12:05:18;11.10;99.90
49503;DHT22;35409;48.776;9.204;2023-05-16T12:07:49;11.30;99.90
49503;DHT22;35409;48.776;9.204;2023-05-16T12:10:15;11.30;99.90
49503;DHT22;35409;48.776;9.204;2023-05-16T12:12:47;11.30;99.90
49503;DHT22;35409;48.776;9.204;2023-05-16T12:15:13;11.40;99.90
49503;DHT22;35409;48.776;9.204;2023-05-16T12:17:40;11.40;99.90
49503;DHT22;35409;48.776;9.204;2023-05-16T12:20:08;11.50;99.90
49503;DHT22;35409;48.776;9.204;2023-05-16T12:22:42;11.50;99.90
49503;DHT22;35409;48.776;9.204;2023-05-16T12:25:25;11.60;99.90
49503;DHT22;35409;48.776;9.204;2023-05-16T12:27:56;11.70;99.90
49503;DHT22;35409;48.776;9.204;2023-05-16T12:30:26;11.80;99.90
49503;DHT22;35409;48.776;9.204;2023-05-16T12:33:02;11.80;99.90
49503;DHT22;35409;48.776;9.204;2023-05-16T12:35:33;11.90;99.90
49503;DHT22;35409;48.776;9.204;2023-05-16T12:38:02;12.00;99.90
49503;DHT22;35409;48.776;9.204;2023-05-16T12:40:28;12.10;99.90
49503;DHT22;35409;48.776;9.204;2023-05-16T12:42:54;12.10;99.90
49503;DHT22;35409;48.776;9.204;2023-05-16T12:45:21;12.00;99.90
49503;DHT22;35409;48.776;9.204;2023-05-16T12:47:47;12.20;99.90
49503;DHT22;35409;48.776;9.204;2023-05-16T12:50:14;12.10;99.90
49503;DHT22;35409;48.776;9.204;2023-05-16T12:52:48;12.10;99.90
49503;DHT22;35409;48.776;9.204;2023-05-16T12:55:18;12.20;99.90
49503;DHT22;35409;48.776;9.204;2023-05-16T12:57:44;12.30;99.90
49503;DHT22;35409;48.776;9.204;2023-05-16T13:00:12;12.30;99.90
49503;DHT22;35409;48.776;9.204;2023-05-16T13:02:39;12.40;99.90
49503;DHT22;35409;48.776;9.204;2023-05-16T13:05:05;12.40;99.90
49503;DHT22;35409;48.776;9.204;2023-05-16T13:07:32;12.40;99.90
49503;DHT22;35409;48.776;9.204;2023-05-16T13:09:58;12.40;99.90
49503;DHT22;35409;48.776;9.204;2023-05-16T13:12:23;12.40;99.90
49503;DHT22;35409;48.776;9.204;2023-05-16T13:14:51;12.40;99.90
49503;DHT22;35409;48.776;9.204;2023-05-16T13:17:17;12.40;99.90
49503;DHT22;35409;48.776;9.204;2023-05-16T13:19:43;12.30;99.90
49503;DHT22;35409;48.776;9.204;2023-05-16T13:22:08;12.20;99.90
49503;DHT22;35409;48.776;9.204;2023-05-16T13:24:34;12.10;99.90
49503;DHT22;35409;48.776;9.204;2023-05-16T13:26:59;12.10;99.90
49503;DHT22;35409;48.776;9.204;2023-05-16T13:29:25;12.10;99.90
49503;DHT22;35409;48.776;9.204;2023-05-16T13:31:51;12.10;99.90
49503;DHT22;35409;48.776;9.204;2023-05-16T13:34:16;12.00;99.90
49503;DHT22;35409;48.776;9.204;2023-05-16T13:36:42;12.00;99.90
49503;DHT22;35409;48.776;9.204;2023-05-16T13:39:07;12.00;99.90
49503;DHT22;35409;48.776;9.204;2023-05-16T13:41:33;12.00;99.90
49503;DHT22;35409;48.776;9.204;2023-05-16T13:44:02;12.10;99.90
49503;DHT22;35409;48.776;9.204;2023-05-16T13:46:28;12.10;99.90
49503;DHT22;35409;48.776;9.204;2023-05-16T13:48:54;12.20;99.90
49503;DHT22;35409;48.776;9.204;2023-05-16T13:51:19;12.10;99.90
49503;DHT22;35409;48.776;9.204;2023-05-16T13:53:46;12.10;99.90
49503;DHT22;35409;48.776;9.204;2023-05-16T13:56:11;12.20;99.90
49503;DHT22;35409;48.776;9.204;2023-05-16T13:58:37;12.10;99.90
49503;DHT22;35409;48.776;9.204;2023-05-16T14:01:03;12.20;99.90
49503;DHT22;35409;48.776;9.204;2023-05-16T14:03:28;12.10;99.90
49503;DHT22;35409;48.776;9.204;2023-05-16T14:05:54;12.20;99.90
49503;DHT22;35409;48.776;9.204;2023-05-16T14:08:19;12.10;99.90
49503;DHT22;35409;48.776;9.204;2023-05-16T14:10:45;12.10;99.90
49503;DHT22;35409;48.776;9.204;2023-05-16T14:13:11;12.10;99.90
49503;DHT22;35409;48.776;9.204;2023-05-16T14:15:36;12.10;99.90
49503;DHT22;35409;48.776;9.204;2023-05-16T14:18:02;12.10;99.90
49503;DHT22;35409;48.776;9.204;2023-05-16T14:20:29;12.10;99.90
49503;DHT22;35409;48.776;9.204;2023-05-16T14:22:55;12.10;99.90
49503;DHT22;35409;48.776;9.204;2023-05-16T14:25:21;12.20;99.90
49503;DHT22;35409;48.776;9.204;2023-05-16T14:27:47;12.30;99.90
49503;DHT22;35409;48.776;9.204;2023-05-16T14:30:15;12.30;99.90
49503;DHT22;35409;48.776;9.204;2023-05-16T14:32:41;12.40;99.90
49503;DHT22;35409;48.776;9.204;2023-05-16T14:35:07;12.40;99.90
49503;DHT22;35409;48.776;9.204;2023-05-16T14:37:34;12.50;99.90
49503;DHT22;35409;48.776;9.204;2023-05-16T14:39:59;12.40;99.90
49503;DHT22;35409;48.776;9.204;2023-05-16T14:42:25;12.40;99.90
49503;DHT22;35409;48.776;9.204;2023-05-16T14:44:51;12.30;99.90
49503;DHT22;35409;48.776;9.204;2023-05-16T14:47:17;12.30;99.90
49503;DHT22;35409;48.776;9.204;2023-05-16T14:49:43;12.40;99.90
49503;DHT22;35409;48.776;9.204;2023-05-16T14:52:08;12.50;99.90
49503;DHT22;35409;48.776;9.204;2023-05-16T14:54:34;12.60;99.90
49503;DHT22;35409;48.776;9.204;2023-05-16T14:57:01;12.70;99.90
49503;DHT22;35409;48.776;9.204;2023-05-16T14:59:28;12.80;99.90
49503;DHT22;35409;48.776;9.204;2023-05-16T15:01:53;12.70;99.90
49503;DHT22;35409;48.776;9.204;2023-05-16T15:04:19;12.80;99.90
49503;DHT22;35409;48.776;9.204;2023-05-16T15:06:45;12.90;99.90
49503;DHT22;35409;48.776;9.204;2023-05-16T15:09:11;12.90;99.90
49503;DHT22;35409;48.776;9.204;2023-05-16T15:11:36;13.00;99.90
49503;DHT22;35409;48.776;9.204;2023-05-16T15:14:02;13.20;99.90
49503;DHT22;35409;48.776;9.204;2023-05-16T15:16:29;13.30;99.90
49503;DHT22;35409;48.776;9.204;2023-05-16T15:18:54;13.30;99.90
49503;DHT22;35409;48.776;9.204;2023-05-16T15:21:20;13.40;99.90
49503;DHT22;35409;48.776;9.204;2023-05-16T15:23:46;13.50;99.90
49503;DHT22;35409;48.776;9.204;2023-05-16T15:26:12;13.40;99.90
49503;DHT22;35409;48.776;9.204;2023-05-16T15:28:37;13.40;99.90
49503;DHT22;35409;48.776;9.204;2023-05-16T15:31:03;13.40;99.90
49503;DHT22;35409;48.776;9.204;2023-05-16T15:33:29;13.40;99.90
49503;DHT22;35409;48.776;9.204;2023-05-16T15:35:55;13.50;99.90
49503;DHT22;35409;48.776;9.204;2023-05-16T15:38:22;13.50;99.90
49503;DHT22;35409;48.776;9.204;2023-05-16T15:40:47;13.50;99.90
49503;DHT22;35409;48.776;9.204;2023-05-16T15:43:13;13.70;99.90
49503;DHT22;35409;48.776;9.204;2023-05-16T15:45:38;13.70;99.90
49503;DHT22;35409;48.776;9.204;2023-05-16T15:48:04;13.90;99.90
49503;DHT22;35409;48.776;9.204;2023-05-16T15:50:30;14.10;99.90
49503;DHT22;35409;48.776;9.204;2023-05-16T15:52:55;14.20;99.90
49503;DHT22;35409;48.776;9.204;2023-05-16T15:55:22;14.20;99.90
49503;DHT22;35409;48.776;9.204;2023-05-16T15:57:48;14.20;99.90
49503;DHT22;35409;48.776;9.204;2023-05-16T16:00:14;14.20;99.90
49503;DHT22;35409;48.776;9.204;2023-05-16T16:02:40;14.10;99.90
49503;DHT22;35409;48.776;9.204;2023-05-16T16:05:07;14.00;99.90
49503;DHT22;35409;48.776;9.204;2023-05-16T16:07:33;13.80;99.90
49503;DHT22;35409;48.776;9.204;2023-05-16T16:09:59;13.70;99.90
49503;DHT22;35409;48.776;9.204;2023-05-16T16:12:24;13.50;99.90
49503;DHT22;35409;48.776;9.204;2023-05-16T16:14:50;13.40;99.90
49503;DHT22;35409;48.776;9.204;2023-05-16T16:17:16;13.40;99.90
49503;DHT22;35409;48.776;9.204;2023-05-16T16:19:41;13.30;99.90
49503;DHT22;35409;48.776;9.204;2023-05-16T16:22:07;13.30;99.90
49503;DHT22;35409;48.776;9.204;2023-05-16T16:24:33;13.20;99.90
49503;DHT22;35409;48.776;9.204;2023-05-16T16:26:58;13.10;99.90
49503;DHT22;35409;48.776;9.204;2023-05-16T16:29:24;13.10;99.90
49503;DHT22;35409;48.776;9.204;2023-05-16T16:31:50;13.10;99.90
49503;DHT22;35409;48.776;9.204;2023-05-16T16:34:17;13.00;99.90
49503;DHT22;35409;48.776;9.204;2023-05-16T16:36:42;13.10;99.90
49503;DHT22;35409;48.776;9.204;2023-05-16T16:39:08;13.10;99.90
49503;DHT22;35409;48.776;9.204;2023-05-16T16:41:34;13.20;99.90
49503;DHT22;35409;48.776;9.204;2023-05-16T16:44:00;13.20;99.90
49503;DHT22;35409;48.776;9.204;2023-05-16T16:46:26;13.30;99.90
49503;DHT22;35409;48.776;9.204;2023-05-16T16:48:54;13.30;99.90
49503;DHT22;35409;48.776;9.204;2023-05-16T16:51:20;13.40;99.90
49503;DHT22;35409;48.776;9.204;2023-05-16T16:53:46;13.30;99.90
49503;DHT22;35409;48.776;9.204;2023-05-16T16:56:11;13.20;99.90
49503;DHT22;35409;48.776;9.204;2023-05-16T16:58:38;13.20;99.90
49503;DHT22;35409;48.776;9.204;2023-05-16T17:01:03;13.20;99.90
49503;DHT22;35409;48.776;9.204;2023-05-16T17:03:29;13.20;99.90
49503;DHT22;35409;48.776;9.204;2023-05-16T17:05:55;13.20;99.90
49503;DHT22;35409;48.776;9.204;2023-05-16T17:08:20;13.30;99.90
49503;DHT22;35409;48.776;9.204;2023-05-16T17:10:46;13.30;99.90
49503;DHT22;35409;48.776;9.204;2023-05-16T17:13:12;13.30;99.90
49503;DHT22;35409;48.776;9.204;2023-05-16T17:15:39;13.20;99.90
49503;DHT22;35409;48.776;9.204;2023-05-16T17:18:05;13.20;99.90
49503;DHT22;35409;48.776;9.204;2023-05-16T17:20:34;13.20;99.90
49503;DHT22;35409;48.776;9.204;2023-05-16T17:23:00;13.20;99.90
49503;DHT22;35409;48.776;9.204;2023-05-16T17:25:26;13.10;99.90
49503;DHT22;35409;48.776;9.204;2023-05-16T17:27:53;13.20;99.90
49503;DHT22;35409;48.776;9.204;2023-05-16T17:30:19;13.10;99.90
49503;DHT22;35409;48.776;9.204;2023-05-16T17:32:44;13.10;99.90
49503;DHT22;35409;48.776;9.204;2023-05-16T17:35:10;13.20;99.90
49503;DHT22;35409;48.776;9.204;2023-05-16T17:37:36;13.20;99.90
49503;DHT22;35409;48.776;9.204;2023-05-16T17:40:01;13.20;99.90
49503;DHT22;35409;48.776;9.204;2023-05-16T17:42:29;13.30;99.90
49503;DHT22;35409;48.776;9.204;2023-05-16T17:44:54;13.30;99.90
49503;DHT22;35409;48.776;9.204;2023-05-16T17:47:20;13.30;99.90
49503;DHT22;35409;48.776;9.204;2023-05-16T17:49:46;13.40;99.90
49503;DHT22;35409;48.776;9.204;2023-05-16T17:52:12;13.30;99.90
49503;DHT22;35409;48.776;9.204;2023-05-16T17:54:38;13.50;99.90
49503;DHT22;35409;48.776;9.204;2023-05-16T17:57:04;13.40;99.90
49503;DHT22;35409;48.776;9.204;2023-05-16T17:59:31;13.50;99.90
49503;DHT22;35409;48.776;9.204;2023-05-16T18:01:56;13.40;99.90
49503;DHT22;35409;48.776;9.204;2023-05-16T18:04:23;13.40;99.90
49503;DHT22;35409;48.776;9.204;2023-05-16T18:06:48;13.30;99.90
49503;DHT22;35409;48.776;9.204;2023-05-16T18:09:16;13.30;99.90
49503;DHT22;35409;48.776;9.204;2023-05-16T18:11:43;13.20;99.90
49503;DHT22;35409;48.776;9.204;2023-05-16T18:14:08;13.20;99.90
49503;DHT22;35409;48.776;9.204;2023-05-16T18:16:34;13.20;99.90
49503;DHT22;35409;48.776;9.204;2023-05-16T18:19:00;13.10;99.90
49503;DHT22;35409;48.776;9.204;2023-05-16T18:21:26;13.10;99.90
49503;DHT22;35409;48.776;9.204;2023-05-16T18:23:53;13.00;99.90
49503;DHT22;35409;48.776;9.204;2023-05-16T18:26:19;12.90;99.90
49503;DHT22;35409;48.776;9.204;2023-05-16T18:28:44;12.90;99.90
49503;DHT22;35409;48.776;9.204;2023-05-16T18:31:10;12.90;99.90
49503;DHT22;35409;48.776;9.204;2023-05-16T18:33:36;12.80;99.90
49503;DHT22;35409;48.776;9.204;2023-05-16T18:36:02;12.80;99.90
49503;DHT22;35409;48.776;9.204;2023-05-16T18:38:28;12.80;99.90
49503;DHT22;35409;48.776;9.204;2023-05-16T18:40:54;12.80;99.90
49503;DHT22;35409;48.776;9.204;2023-05-16T18:43:20;12.70;99.90
49503;DHT22;35409;48.776;9.204;2023-05-16T18:45:45;12.60;99.90
49503;DHT22;35409;48.776;9.204;2023-05-16T18:48:11;12.60;99.90
49503;DHT22;35409;48.776;9.204;2023-05-16T18:50:37;12.60;99.90
49503;DHT22;35409;48.776;9.204;2023-05-16T18:53:02;12.60;99.90
49503;DHT22;35409;48.776;9.204;2023-05-16T18:55:28;12.40;99.90
49503;DHT22;35409;48.776;9.204;2023-05-16T18:57:53;12.30;99.90
49503;DHT22;35409;48.776;9.204;2023-05-16T19:00:19;12.30;99.90
49503;DHT22;35409;48.776;9.204;2023-05-16T19:02:45;12.30;99.90
49503;DHT22;35409;48.776;9.204;2023-05-16T19:05:11;12.20;99.90